sensor_id;sensor_type;location;lat;lon;timestamp;pressure;altitude;pressure_sealevel;temperature;humidity
69223;BME280;56514;51.816;-0.026;2022-09-29T00:00:30;99457.72;;;7.97;70.02
69223;BME280;56514;51.816;-0.026;2022-09-29T00:03:15;99451.75;;;7.95;69.76
69223;BME280;56514;51.816;-0.026;2022-09-29T00:06:01;99444.69;;;7.96;69.93
69223;BME280;56514;51.816;-0.026;2022-09-29T00:08:46;99449.38;;;7.92;70.47
69223;BME280;56514;51.816;-0.026;2022-09-29T00:11:31;99460.19;;;7.88;70.27
69223;BME280;56514;51.816;-0.026;2022-09-29T00:14:15;99446.97;;;7.89;70.44
69223;BME280;56514;51.816;-0.026;2022-09-29T00:17:00;99445.78;;;7.82;70.13
69223;BME280;56514;51.816;-0.026;2022-09-29T00:19:45;99449.47;;;7.80;70.42
69223;BME280;56514;51.816;-0.026;2022-09-29T00:22:30;99452.91;;;7.80;70.43
69223;BME280;56514;51.816;-0.026;2022-09-29T00:25:15;99447.06;;;7.88;70.76
69223;BME280;56514;51.816;-0.026;2022-09-29T00:28:00;99443.38;;;7.79;70.86
69223;BME280;56514;51.816;-0.026;2022-09-29T00:30:45;99445.28;;;7.77;70.40
69223;BME280;56514;51.816;-0.026;2022-09-29T00:33:31;99436.00;;;7.84;70.80
69223;BME280;56514;51.816;-0.026;2022-09-29T00:36:18;99436.34;;;7.80;71.10
69223;BME280;56514;51.816;-0.026;2022-09-29T00:39:03;99441.84;;;7.77;70.88
69223;BME280;56514;51.816;-0.026;2022-09-29T00:41:48;99443.72;;;7.75;70.60
69223;BME280;56514;51.816;-0.026;2022-09-29T00:44:54;99436.09;;;7.72;71.09
69223;BME280;56514;51.816;-0.026;2022-09-29T00:47:42;99443.13;;;7.71;71.00
69223;BME280;56514;51.816;-0.026;2022-09-29T00:50:45;99432.63;;;7.71;71.06
69223;BME280;56514;51.816;-0.026;2022-09-29T00:53:33;99434.78;;;7.66;71.30
69223;BME280;56514;51.816;-0.026;2022-09-29T00:56:18;99425.34;;;7.64;71.23
69223;BME280;56514;51.816;-0.026;2022-09-29T00:59:06;99432.84;;;7.68;71.17
69223;BME280;56514;51.816;-0.026;2022-09-29T01:01:53;99428.56;;;7.67;70.95
69223;BME280;56514;51.816;-0.026;2022-09-29T01:04:38;99425.72;;;7.70;71.03
69223;BME280;56514;51.816;-0.026;2022-09-29T01:07:25;99428.81;;;7.64;71.05
69223;BME280;56514;51.816;-0.026;2022-09-29T01:10:12;99425.34;;;7.64;71.00
69223;BME280;56514;51.816;-0.026;2022-09-29T01:13:00;99435.13;;;7.62;71.10
69223;BME280;56514;51.816;-0.026;2022-09-29T01:15:45;99430.00;;;7.60;71.08
69223;BME280;56514;51.816;-0.026;2022-09-29T01:18:31;99427.38;;;7.60;70.94
69223;BME280;56514;51.816;-0.026;2022-09-29T01:27:15;99425.09;;;7.56;70.45
69223;BME280;56514;51.816;-0.026;2022-09-29T01:41:53;99425.53;;;7.50;70.25
69223;BME280;56514;51.816;-0.026;2022-09-29T01:48:05;99423.28;;;7.45;70.19
69223;BME280;56514;51.816;-0.026;2022-09-29T01:50:58;99423.28;;;7.45;69.92
69223;BME280;56514;51.816;-0.026;2022-09-29T01:53:56;99423.28;;;7.45;70.28
69223;BME280;56514;51.816;-0.026;2022-09-29T01:56:50;99432.09;;;7.44;70.03
69223;BME280;56514;51.816;-0.026;2022-09-29T02:05:53;99427.94;;;7.42;71.24
69223;BME280;56514;51.816;-0.026;2022-09-29T02:08:46;99424.59;;;7.40;70.70
69223;BME280;56514;51.816;-0.026;2022-09-29T02:11:34;99428.06;;;7.40;71.44
69223;BME280;56514;51.816;-0.026;2022-09-29T02:14:24;99416.94;;;7.37;71.10
69223;BME280;56514;51.816;-0.026;2022-09-29T02:17:28;99430.28;;;7.34;70.24
69223;BME280;56514;51.816;-0.026;2022-09-29T02:20:14;99421.00;;;7.30;71.26
69223;BME280;56514;51.816;-0.026;2022-09-29T02:23:00;99426.34;;;7.28;71.86
69223;BME280;56514;51.816;-0.026;2022-09-29T02:25:47;99420.59;;;7.23;71.44
69223;BME280;56514;51.816;-0.026;2022-09-29T02:28:34;99419.88;;;7.21;71.25
69223;BME280;56514;51.816;-0.026;2022-09-29T02:31:19;99426.19;;;7.18;71.33
69223;BME280;56514;51.816;-0.026;2022-09-29T02:34:07;99424.75;;;7.14;71.76
69223;BME280;56514;51.816;-0.026;2022-09-29T02:37:20;99425.81;;;7.12;71.09
69223;BME280;56514;51.816;-0.026;2022-09-29T02:49:10;99416.84;;;7.03;70.51
69223;BME280;56514;51.816;-0.026;2022-09-29T02:55:08;99422.31;;;7.00;70.49
69223;BME280;56514;51.816;-0.026;2022-09-29T02:58:23;99419.94;;;6.97;70.06
69223;BME280;56514;51.816;-0.026;2022-09-29T03:01:10;99413.94;;;6.95;70.43
69223;BME280;56514;51.816;-0.026;2022-09-29T03:03:54;99417.53;;;6.94;70.79
69223;BME280;56514;51.816;-0.026;2022-09-29T03:06:39;99416.91;;;6.91;70.97
69223;BME280;56514;51.816;-0.026;2022-09-29T03:09:24;99415.38;;;6.88;70.43
69223;BME280;56514;51.816;-0.026;2022-09-29T03:12:09;99420.94;;;6.84;70.24
69223;BME280;56514;51.816;-0.026;2022-09-29T03:14:53;99418.66;;;6.79;69.86
69223;BME280;56514;51.816;-0.026;2022-09-29T03:17:38;99418.16;;;6.74;70.17
69223;BME280;56514;51.816;-0.026;2022-09-29T03:20:23;99418.50;;;6.70;69.94
69223;BME280;56514;51.816;-0.026;2022-09-29T03:23:10;99417.97;;;6.65;69.76
69223;BME280;56514;51.816;-0.026;2022-09-29T03:25:58;99422.47;;;6.63;69.63
69223;BME280;56514;51.816;-0.026;2022-09-29T03:28:43;99419.97;;;6.61;70.09
69223;BME280;56514;51.816;-0.026;2022-09-29T03:31:28;99416.44;;;6.62;69.97
69223;BME280;56514;51.816;-0.026;2022-09-29T03:34:12;99422.59;;;6.61;69.60
69223;BME280;56514;51.816;-0.026;2022-09-29T03:36:59;99424.28;;;6.62;69.93
69223;BME280;56514;51.816;-0.026;2022-09-29T03:39:43;99432.16;;;6.62;69.74
69223;BME280;56514;51.816;-0.026;2022-09-29T03:42:28;99440.72;;;6.64;69.75
69223;BME280;56514;51.816;-0.026;2022-09-29T03:45:13;99443.22;;;6.66;69.71
69223;BME280;56514;51.816;-0.026;2022-09-29T03:47:58;99440.72;;;6.64;70.07
69223;BME280;56514;51.816;-0.026;2022-09-29T03:50:47;99444.06;;;6.66;69.70
69223;BME280;56514;51.816;-0.026;2022-09-29T03:53:33;99439.56;;;6.68;69.48
69223;BME280;56514;51.816;-0.026;2022-09-29T03:56:19;99452.44;;;6.71;69.57
69223;BME280;56514;51.816;-0.026;2022-09-29T03:59:04;99452.84;;;6.78;69.59
69223;BME280;56514;51.816;-0.026;2022-09-29T04:01:51;99447.75;;;6.87;69.24
69223;BME280;56514;51.816;-0.026;2022-09-29T04:04:37;99455.78;;;6.97;68.89
69223;BME280;56514;51.816;-0.026;2022-09-29T04:07:21;99461.91;;;7.08;69.11
69223;BME280;56514;51.816;-0.026;2022-09-29T04:10:06;99459.31;;;7.19;68.54
69223;BME280;56514;51.816;-0.026;2022-09-29T04:12:51;99460.09;;;7.33;68.85
69223;BME280;56514;51.816;-0.026;2022-09-29T04:15:36;99464.31;;;7.46;68.56
69223;BME280;56514;51.816;-0.026;2022-09-29T04:18:21;99458.88;;;7.60;68.65
69223;BME280;56514;51.816;-0.026;2022-09-29T04:21:08;99460.69;;;7.71;68.43
69223;BME280;56514;51.816;-0.026;2022-09-29T04:23:53;99458.16;;;7.80;68.32
69223;BME280;56514;51.816;-0.026;2022-09-29T04:26:38;99459.50;;;7.86;67.98
69223;BME280;56514;51.816;-0.026;2022-09-29T04:29:23;99464.16;;;7.93;67.96
69223;BME280;56514;51.816;-0.026;2022-09-29T04:32:08;99473.00;;;8.03;67.66
69223;BME280;56514;51.816;-0.026;2022-09-29T04:34:53;99479.47;;;8.10;67.73
69223;BME280;56514;51.816;-0.026;2022-09-29T04:37:38;99477.16;;;8.17;67.78
69223;BME280;56514;51.816;-0.026;2022-09-29T04:40:23;99474.09;;;8.23;67.55
69223;BME280;56514;51.816;-0.026;2022-09-29T04:43:09;99480.56;;;8.30;67.72
69223;BME280;56514;51.816;-0.026;2022-09-29T04:46:06;99471.72;;;8.31;67.88
69223;BME280;56514;51.816;-0.026;2022-09-29T04:48:51;99486.44;;;8.33;67.10
69223;BME280;56514;51.816;-0.026;2022-09-29T04:51:36;99480.94;;;8.36;67.18
69223;BME280;56514;51.816;-0.026;2022-09-29T04:54:21;99482.34;;;8.40;67.42
69223;BME280;56514;51.816;-0.026;2022-09-29T04:57:06;99476.84;;;8.43;66.66
69223;BME280;56514;51.816;-0.026;2022-09-29T04:59:51;99481.13;;;8.44;66.91
69223;BME280;56514;51.816;-0.026;2022-09-29T05:02:36;99486.41;;;8.44;67.35
69223;BME280;56514;51.816;-0.026;2022-09-29T05:05:22;99487.84;;;8.48;67.38
69223;BME280;56514;51.816;-0.026;2022-09-29T05:08:06;99487.34;;;8.54;67.25
69223;BME280;56514;51.816;-0.026;2022-09-29T05:10:51;99492.94;;;8.61;67.06
69223;BME280;56514;51.816;-0.026;2022-09-29T05:13:36;99492.56;;;8.65;66.89
69223;BME280;56514;51.816;-0.026;2022-09-29T05:16:22;99498.19;;;8.72;66.50
69223;BME280;56514;51.816;-0.026;2022-09-29T05:19:07;99492.56;;;8.76;66.63
69223;BME280;56514;51.816;-0.026;2022-09-29T05:21:52;99498.44;;;8.80;66.96
69223;BME280;56514;51.816;-0.026;2022-09-29T05:24:37;99497.22;;;8.84;66.92
69223;BME280;56514;51.816;-0.026;2022-09-29T05:27:22;99504.84;;;8.87;66.99
69223;BME280;56514;51.816;-0.026;2022-09-29T05:30:07;99508.09;;;8.90;66.72
69223;BME280;56514;51.816;-0.026;2022-09-29T05:32:51;99508.56;;;8.96;66.67
69223;BME280;56514;51.816;-0.026;2022-09-29T05:35:36;99512.00;;;8.96;66.93
69223;BME280;56514;51.816;-0.026;2022-09-29T05:38:21;99512.72;;;8.98;66.47
69223;BME280;56514;51.816;-0.026;2022-09-29T05:41:09;99516.19;;;8.99;66.43
69223;BME280;56514;51.816;-0.026;2022-09-29T05:43:59;99510.94;;;8.99;66.67
69223;BME280;56514;51.816;-0.026;2022-09-29T05:46:45;99523.84;;;9.02;66.67
69223;BME280;56514;51.816;-0.026;2022-09-29T05:49:30;99517.63;;;9.03;66.79
69223;BME280;56514;51.816;-0.026;2022-09-29T05:52:16;99514.00;;;9.04;66.94
69223;BME280;56514;51.816;-0.026;2022-09-29T05:55:01;99524.53;;;9.04;66.75
69223;BME280;56514;51.816;-0.026;2022-09-29T05:57:47;99518.47;;;9.03;66.64
69223;BME280;56514;51.816;-0.026;2022-09-29T06:00:33;99521.78;;;9.05;66.76
69223;BME280;56514;51.816;-0.026;2022-09-29T06:03:18;99536.50;;;9.08;66.86
69223;BME280;56514;51.816;-0.026;2022-09-29T06:06:08;99542.13;;;9.14;67.02
69223;BME280;56514;51.816;-0.026;2022-09-29T06:08:54;99534.78;;;9.18;67.40
69223;BME280;56514;51.816;-0.026;2022-09-29T06:11:39;99541.38;;;9.23;67.08
69223;BME280;56514;51.816;-0.026;2022-09-29T06:14:23;99541.69;;;9.30;67.18
69223;BME280;56514;51.816;-0.026;2022-09-29T06:17:09;99539.78;;;9.32;67.01
69223;BME280;56514;51.816;-0.026;2022-09-29T06:19:53;99540.38;;;9.35;67.39
69223;BME280;56514;51.816;-0.026;2022-09-29T06:22:38;99548.56;;;9.42;66.79
69223;BME280;56514;51.816;-0.026;2022-09-29T06:25:23;99547.38;;;9.46;66.86
69223;BME280;56514;51.816;-0.026;2022-09-29T06:28:08;99552.41;;;9.49;66.68
69223;BME280;56514;51.816;-0.026;2022-09-29T06:31:09;99548.41;;;9.54;66.52
69223;BME280;56514;51.816;-0.026;2022-09-29T06:34:00;99556.78;;;9.59;66.62
69223;BME280;56514;51.816;-0.026;2022-09-29T06:36:45;99560.81;;;9.63;66.81
69223;BME280;56514;51.816;-0.026;2022-09-29T06:39:49;99561.16;;;9.70;66.51
69223;BME280;56514;51.816;-0.026;2022-09-29T06:42:34;99561.38;;;9.78;66.54
69223;BME280;56514;51.816;-0.026;2022-09-29T06:45:19;99562.78;;;9.82;66.52
69223;BME280;56514;51.816;-0.026;2022-09-29T06:48:04;99566.59;;;9.89;66.59
69223;BME280;56514;51.816;-0.026;2022-09-29T06:50:48;99574.66;;;9.97;66.32
69223;BME280;56514;51.816;-0.026;2022-09-29T06:53:33;99577.50;;;10.05;66.12
69223;BME280;56514;51.816;-0.026;2022-09-29T06:56:19;99581.31;;;10.12;66.44
69223;BME280;56514;51.816;-0.026;2022-09-29T06:59:04;99569.03;;;10.22;66.22
69223;BME280;56514;51.816;-0.026;2022-09-29T07:01:49;99581.06;;;10.35;66.00
69223;BME280;56514;51.816;-0.026;2022-09-29T07:04:34;99585.53;;;10.44;65.61
69223;BME280;56514;51.816;-0.026;2022-09-29T07:07:19;99581.28;;;10.53;65.44
69223;BME280;56514;51.816;-0.026;2022-09-29T07:10:04;99584.81;;;10.63;65.07
69223;BME280;56514;51.816;-0.026;2022-09-29T07:12:49;99586.91;;;10.69;65.50
69223;BME280;56514;51.816;-0.026;2022-09-29T07:15:34;99587.50;;;10.73;65.12
69223;BME280;56514;51.816;-0.026;2022-09-29T07:18:19;99585.97;;;10.80;64.86
69223;BME280;56514;51.816;-0.026;2022-09-29T07:21:05;99591.16;;;10.91;64.79
69223;BME280;56514;51.816;-0.026;2022-09-29T07:23:50;99586.75;;;11.01;64.87
69223;BME280;56514;51.816;-0.026;2022-09-29T07:26:35;99581.34;;;11.02;64.92
69223;BME280;56514;51.816;-0.026;2022-09-29T07:29:20;99579.72;;;11.11;64.65
69223;BME280;56514;51.816;-0.026;2022-09-29T07:32:05;99579.03;;;11.18;64.71
69223;BME280;56514;51.816;-0.026;2022-09-29T07:34:53;99580.00;;;11.27;64.41
69223;BME280;56514;51.816;-0.026;2022-09-29T07:37:38;99587.25;;;11.34;63.99
69223;BME280;56514;51.816;-0.026;2022-09-29T07:40:23;99592.56;;;11.44;64.00
69223;BME280;56514;51.816;-0.026;2022-09-29T07:43:08;99604.78;;;11.54;64.01
69223;BME280;56514;51.816;-0.026;2022-09-29T07:45:53;99608.72;;;11.69;63.84
69223;BME280;56514;51.816;-0.026;2022-09-29T07:48:38;99607.91;;;11.78;63.67
69223;BME280;56514;51.816;-0.026;2022-09-29T07:51:23;99608.16;;;11.75;63.06
69223;BME280;56514;51.816;-0.026;2022-09-29T07:54:08;99618.06;;;11.64;63.75
69223;BME280;56514;51.816;-0.026;2022-09-29T07:56:53;99618.41;;;11.50;63.52
69223;BME280;56514;51.816;-0.026;2022-09-29T07:59:38;99623.13;;;11.46;64.00
69223;BME280;56514;51.816;-0.026;2022-09-29T08:02:24;99632.19;;;11.53;64.13
69223;BME280;56514;51.816;-0.026;2022-09-29T08:05:09;99637.94;;;11.68;64.09
69223;BME280;56514;51.816;-0.026;2022-09-29T08:07:54;99646.13;;;11.84;63.87
69223;BME280;56514;51.816;-0.026;2022-09-29T08:10:39;99647.66;;;12.05;63.84
69223;BME280;56514;51.816;-0.026;2022-09-29T08:13:24;99661.59;;;12.26;63.79
69223;BME280;56514;51.816;-0.026;2022-09-29T08:16:13;99657.94;;;12.47;63.83
69223;BME280;56514;51.816;-0.026;2022-09-29T08:18:59;99661.94;;;12.70;63.25
69223;BME280;56514;51.816;-0.026;2022-09-29T08:21:45;99666.16;;;12.99;63.08
69223;BME280;56514;51.816;-0.026;2022-09-29T08:24:33;99665.47;;;13.07;62.03
69223;BME280;56514;51.816;-0.026;2022-09-29T08:27:20;99672.41;;;13.17;61.97
69223;BME280;56514;51.816;-0.026;2022-09-29T08:30:06;99673.31;;;13.26;61.76
69223;BME280;56514;51.816;-0.026;2022-09-29T08:32:52;99676.72;;;13.45;61.56
69223;BME280;56514;51.816;-0.026;2022-09-29T08:35:37;99678.84;;;13.59;61.00
69223;BME280;56514;51.816;-0.026;2022-09-29T08:38:24;99678.66;;;13.70;61.24
69223;BME280;56514;51.816;-0.026;2022-09-29T08:53:39;99698.09;;;14.59;59.62
69223;BME280;56514;51.816;-0.026;2022-09-29T08:56:27;99704.78;;;14.63;59.90
69223;BME280;56514;51.816;-0.026;2022-09-29T08:59:12;99708.94;;;14.91;59.92
69223;BME280;56514;51.816;-0.026;2022-09-29T09:05:23;99711.63;;;15.50;57.88
69223;BME280;56514;51.816;-0.026;2022-09-29T09:12:01;99726.91;;;15.98;57.37
69223;BME280;56514;51.816;-0.026;2022-09-29T09:15:34;99732.72;;;15.93;56.67
69223;BME280;56514;51.816;-0.026;2022-09-29T09:21:41;99728.09;;;15.95;57.52
69223;BME280;56514;51.816;-0.026;2022-09-29T09:24:45;99726.06;;;15.97;57.32
69223;BME280;56514;51.816;-0.026;2022-09-29T09:27:36;99742.09;;;16.13;57.33
69223;BME280;56514;51.816;-0.026;2022-09-29T09:30:25;99744.13;;;16.43;56.76
69223;BME280;56514;51.816;-0.026;2022-09-29T09:33:29;99754.34;;;16.56;55.95
69223;BME280;56514;51.816;-0.026;2022-09-29T09:36:22;99759.13;;;16.44;55.71
69223;BME280;56514;51.816;-0.026;2022-09-29T09:39:17;99762.75;;;16.35;55.78
69223;BME280;56514;51.816;-0.026;2022-09-29T09:42:23;99763.00;;;16.74;55.61
69223;BME280;56514;51.816;-0.026;2022-09-29T09:45:15;99765.31;;;17.09;55.42
69223;BME280;56514;51.816;-0.026;2022-09-29T09:48:20;99768.22;;;17.54;53.61
69223;BME280;56514;51.816;-0.026;2022-09-29T09:51:23;99768.56;;;17.51;53.50
69223;BME280;56514;51.816;-0.026;2022-09-29T09:54:33;99773.38;;;17.64;53.65
69223;BME280;56514;51.816;-0.026;2022-09-29T10:00:42;99781.09;;;18.28;52.71
69223;BME280;56514;51.816;-0.026;2022-09-29T10:03:29;99778.09;;;18.53;52.50
69223;BME280;56514;51.816;-0.026;2022-09-29T10:06:14;99775.22;;;18.63;51.43
69223;BME280;56514;51.816;-0.026;2022-09-29T10:08:59;99792.03;;;18.41;51.20
69223;BME280;56514;51.816;-0.026;2022-09-29T10:11:44;99795.00;;;18.15;51.12
69223;BME280;56514;51.816;-0.026;2022-09-29T10:14:29;99804.06;;;17.98;51.39
69223;BME280;56514;51.816;-0.026;2022-09-29T10:17:18;99808.59;;;17.35;52.01
69223;BME280;56514;51.816;-0.026;2022-09-29T10:20:07;99813.78;;;16.80;53.21
69223;BME280;56514;51.816;-0.026;2022-09-29T10:22:52;99817.06;;;16.58;54.34
69223;BME280;56514;51.816;-0.026;2022-09-29T10:25:37;99818.38;;;16.46;54.57
69223;BME280;56514;51.816;-0.026;2022-09-29T10:28:23;99823.13;;;16.27;55.34
69223;BME280;56514;51.816;-0.026;2022-09-29T10:31:35;99829.75;;;16.15;55.23
69223;BME280;56514;51.816;-0.026;2022-09-29T10:34:23;99830.09;;;16.20;55.81
69223;BME280;56514;51.816;-0.026;2022-09-29T10:37:21;99833.41;;;16.22;55.00
69223;BME280;56514;51.816;-0.026;2022-09-29T10:42:52;99840.88;;;16.18;55.31
69223;BME280;56514;51.816;-0.026;2022-09-29T10:45:46;99843.56;;;16.26;55.44
69223;BME280;56514;51.816;-0.026;2022-09-29T10:48:31;99831.84;;;16.45;54.97
69223;BME280;56514;51.816;-0.026;2022-09-29T10:51:21;99837.06;;;16.94;54.43
69223;BME280;56514;51.816;-0.026;2022-09-29T10:54:13;99841.41;;;17.11;53.28
69223;BME280;56514;51.816;-0.026;2022-09-29T10:57:10;99840.25;;;17.46;53.41
69223;BME280;56514;51.816;-0.026;2022-09-29T10:59:57;99837.28;;;17.96;52.45
69223;BME280;56514;51.816;-0.026;2022-09-29T11:02:45;99843.53;;;18.57;51.48
69223;BME280;56514;51.816;-0.026;2022-09-29T11:05:31;99846.09;;;18.73;50.68
69223;BME280;56514;51.816;-0.026;2022-09-29T11:08:16;99836.50;;;18.56;49.85
69223;BME280;56514;51.816;-0.026;2022-09-29T11:11:21;99850.47;;;18.36;50.14
69223;BME280;56514;51.816;-0.026;2022-09-29T11:14:29;99860.47;;;17.95;50.39
69223;BME280;56514;51.816;-0.026;2022-09-29T11:17:28;99851.56;;;17.56;51.23
69223;BME280;56514;51.816;-0.026;2022-09-29T11:20:14;99861.06;;;17.26;52.13
69223;BME280;56514;51.816;-0.026;2022-09-29T11:23:29;99872.38;;;16.88;52.93
69223;BME280;56514;51.816;-0.026;2022-09-29T11:36:11;99877.75;;;17.44;52.66
69223;BME280;56514;51.816;-0.026;2022-09-29T11:44:58;99881.19;;;18.93;49.15
69223;BME280;56514;51.816;-0.026;2022-09-29T11:50:56;99881.91;;;18.87;48.13
69223;BME280;56514;51.816;-0.026;2022-09-29T11:57:04;99886.66;;;19.45;46.61
69223;BME280;56514;51.816;-0.026;2022-09-29T12:00:41;99892.06;;;19.14;47.05
69223;BME280;56514;51.816;-0.026;2022-09-29T12:03:38;99886.47;;;19.23;47.09
69223;BME280;56514;51.816;-0.026;2022-09-29T12:12:34;99891.78;;;20.70;44.38
69223;BME280;56514;51.816;-0.026;2022-09-29T12:15:41;99884.88;;;20.97;42.97
69223;BME280;56514;51.816;-0.026;2022-09-29T12:18:39;99881.72;;;20.94;42.71
69223;BME280;56514;51.816;-0.026;2022-09-29T12:21:50;99888.41;;;20.98;42.54
69223;BME280;56514;51.816;-0.026;2022-09-29T12:24:42;99889.09;;;21.06;42.83
69223;BME280;56514;51.816;-0.026;2022-09-29T12:27:39;99888.28;;;21.27;42.69
69223;BME280;56514;51.816;-0.026;2022-09-29T12:30:29;99890.25;;;21.18;43.33
69223;BME280;56514;51.816;-0.026;2022-09-29T12:33:33;99885.34;;;20.86;41.85
69223;BME280;56514;51.816;-0.026;2022-09-29T12:36:50;99884.50;;;20.64;43.09
69223;BME280;56514;51.816;-0.026;2022-09-29T12:40:16;99891.38;;;21.09;42.31
69223;BME280;56514;51.816;-0.026;2022-09-29T12:52:01;99901.19;;;21.86;40.46
69223;BME280;56514;51.816;-0.026;2022-09-29T12:54:54;99889.66;;;21.71;39.19
69223;BME280;56514;51.816;-0.026;2022-09-29T12:57:44;99894.69;;;21.53;39.73
69223;BME280;56514;51.816;-0.026;2022-09-29T13:00:33;99895.88;;;21.02;39.75
69223;BME280;56514;51.816;-0.026;2022-09-29T13:03:42;99897.53;;;20.53;41.08
69223;BME280;56514;51.816;-0.026;2022-09-29T13:12:50;99897.88;;;26.71;33.74
69223;BME280;56514;51.816;-0.026;2022-09-29T13:31:19;99906.22;;;31.52;23.10
69223;BME280;56514;51.816;-0.026;2022-09-29T13:34:06;99898.13;;;31.93;21.81
69223;BME280;56514;51.816;-0.026;2022-09-29T13:37:16;99913.03;;;32.69;23.86
69223;BME280;56514;51.816;-0.026;2022-09-29T13:40:04;99915.75;;;32.17;22.53
69223;BME280;56514;51.816;-0.026;2022-09-29T13:42:54;99924.75;;;30.75;23.98
69223;BME280;56514;51.816;-0.026;2022-09-29T13:45:50;99918.88;;;28.84;25.60
69223;BME280;56514;51.816;-0.026;2022-09-29T13:48:36;99932.06;;;27.13;27.90
69223;BME280;56514;51.816;-0.026;2022-09-29T13:51:57;99934.69;;;27.19;27.38
69223;BME280;56514;51.816;-0.026;2022-09-29T13:54:44;99918.84;;;29.41;25.99
69223;BME280;56514;51.816;-0.026;2022-09-29T13:57:30;99925.63;;;31.29;22.97
69223;BME280;56514;51.816;-0.026;2022-09-29T14:00:16;99917.03;;;32.47;21.63
69223;BME280;56514;51.816;-0.026;2022-09-29T14:03:16;99917.88;;;33.29;19.51
69223;BME280;56514;51.816;-0.026;2022-09-29T14:09:00;99925.06;;;33.75;21.25
69223;BME280;56514;51.816;-0.026;2022-09-29T14:11:50;99936.84;;;32.32;21.78
69223;BME280;56514;51.816;-0.026;2022-09-29T14:14:39;99943.03;;;30.03;23.57
69223;BME280;56514;51.816;-0.026;2022-09-29T14:17:36;99935.94;;;28.34;25.88
69223;BME280;56514;51.816;-0.026;2022-09-29T14:20:30;99941.13;;;28.01;26.39
69223;BME280;56514;51.816;-0.026;2022-09-29T14:26:50;99943.38;;;26.92;27.80
69223;BME280;56514;51.816;-0.026;2022-09-29T14:29:49;99943.59;;;28.99;26.26
69223;BME280;56514;51.816;-0.026;2022-09-29T14:35:32;99941.13;;;33.36;20.57
69223;BME280;56514;51.816;-0.026;2022-09-29T14:41:30;99953.13;;;30.79;21.29
69223;BME280;56514;51.816;-0.026;2022-09-29T14:44:25;99959.03;;;30.00;22.40
69223;BME280;56514;51.816;-0.026;2022-09-29T14:57:07;99961.63;;;33.29;19.37
69223;BME280;56514;51.816;-0.026;2022-09-29T15:00:04;99966.34;;;35.17;16.81
69223;BME280;56514;51.816;-0.026;2022-09-29T15:02:54;99965.91;;;36.16;15.57
69223;BME280;56514;51.816;-0.026;2022-09-29T15:05:40;99965.63;;;36.46;15.27
69223;BME280;56514;51.816;-0.026;2022-09-29T15:08:28;99976.00;;;35.54;15.58
69223;BME280;56514;51.816;-0.026;2022-09-29T15:11:42;99977.31;;;35.12;16.00
69223;BME280;56514;51.816;-0.026;2022-09-29T15:14:31;99976.31;;;34.98;15.99
69223;BME280;56514;51.816;-0.026;2022-09-29T15:20:49;99980.94;;;36.24;15.02
69223;BME280;56514;51.816;-0.026;2022-09-29T15:27:12;99981.47;;;37.25;14.82
69223;BME280;56514;51.816;-0.026;2022-09-29T15:29:59;99982.38;;;38.54;14.21
69223;BME280;56514;51.816;-0.026;2022-09-29T15:32:45;99985.34;;;38.85;12.93
69223;BME280;56514;51.816;-0.026;2022-09-29T15:35:38;99988.41;;;38.10;12.68
69223;BME280;56514;51.816;-0.026;2022-09-29T15:38:30;99983.94;;;38.74;12.95
69223;BME280;56514;51.816;-0.026;2022-09-29T15:41:21;99990.53;;;39.62;12.58
69223;BME280;56514;51.816;-0.026;2022-09-29T15:44:16;99987.09;;;40.23;12.26
69223;BME280;56514;51.816;-0.026;2022-09-29T15:47:04;99988.44;;;40.56;11.30
69223;BME280;56514;51.816;-0.026;2022-09-29T15:49:51;99993.28;;;40.51;11.67
69223;BME280;56514;51.816;-0.026;2022-09-29T15:52:36;99987.25;;;40.79;11.89
69223;BME280;56514;51.816;-0.026;2022-09-29T15:55:23;99992.41;;;41.11;11.12
69223;BME280;56514;51.816;-0.026;2022-09-29T15:58:34;99997.38;;;40.92;11.00
69223;BME280;56514;51.816;-0.026;2022-09-29T16:01:23;99997.53;;;40.57;11.22
69223;BME280;56514;51.816;-0.026;2022-09-29T16:04:08;100004.25;;;40.11;11.18
69223;BME280;56514;51.816;-0.026;2022-09-29T16:06:54;99997.22;;;39.83;11.68
69223;BME280;56514;51.816;-0.026;2022-09-29T16:09:40;100000.31;;;40.04;11.87
69223;BME280;56514;51.816;-0.026;2022-09-29T16:12:26;100012.47;;;40.25;12.12
69223;BME280;56514;51.816;-0.026;2022-09-29T16:15:23;100005.66;;;40.53;11.51
69223;BME280;56514;51.816;-0.026;2022-09-29T16:18:24;100005.81;;;40.48;11.40
69223;BME280;56514;51.816;-0.026;2022-09-29T16:21:19;100013.13;;;40.44;11.30
69223;BME280;56514;51.816;-0.026;2022-09-29T16:26:52;100019.66;;;40.57;11.50
69223;BME280;56514;51.816;-0.026;2022-09-29T16:29:38;100027.63;;;40.58;11.41
69223;BME280;56514;51.816;-0.026;2022-09-29T16:32:56;100032.97;;;40.24;10.94
69223;BME280;56514;51.816;-0.026;2022-09-29T16:35:46;100032.16;;;39.66;11.39
69223;BME280;56514;51.816;-0.026;2022-09-29T16:41:27;100032.56;;;39.24;11.96
69223;BME280;56514;51.816;-0.026;2022-09-29T16:44:26;100036.44;;;39.09;11.85
69223;BME280;56514;51.816;-0.026;2022-09-29T16:50:02;100050.91;;;38.28;12.98
69223;BME280;56514;51.816;-0.026;2022-09-29T16:52:49;100048.03;;;38.01;12.69
69223;BME280;56514;51.816;-0.026;2022-09-29T16:55:34;100051.25;;;37.53;13.06
69223;BME280;56514;51.816;-0.026;2022-09-29T16:58:19;100054.34;;;37.04;13.05
69223;BME280;56514;51.816;-0.026;2022-09-29T17:01:05;100061.53;;;36.48;13.82
69223;BME280;56514;51.816;-0.026;2022-09-29T17:03:49;100070.53;;;35.22;14.36
69223;BME280;56514;51.816;-0.026;2022-09-29T17:06:34;100067.13;;;34.57;15.30
69223;BME280;56514;51.816;-0.026;2022-09-29T17:09:23;100066.59;;;34.15;16.22
69223;BME280;56514;51.816;-0.026;2022-09-29T17:12:11;100063.63;;;33.29;16.60
69223;BME280;56514;51.816;-0.026;2022-09-29T17:14:57;100063.63;;;32.09;17.23
69223;BME280;56514;51.816;-0.026;2022-09-29T17:17:47;100067.66;;;30.73;18.65
69223;BME280;56514;51.816;-0.026;2022-09-29T17:20:32;100075.22;;;29.32;19.99
69223;BME280;56514;51.816;-0.026;2022-09-29T17:23:17;100075.88;;;27.71;21.00
69223;BME280;56514;51.816;-0.026;2022-09-29T17:26:20;100073.75;;;25.91;22.99
69223;BME280;56514;51.816;-0.026;2022-09-29T17:29:26;100080.50;;;24.28;25.22
69223;BME280;56514;51.816;-0.026;2022-09-29T17:32:13;100084.31;;;23.07;26.36
69223;BME280;56514;51.816;-0.026;2022-09-29T17:34:58;100083.88;;;22.20;27.81